Time;durP1;ratioP1;P1;durP2;ratioP2;P2;SDS_P1;SDS_P2;PMS_P1;PMS_P2;Temp;Humidity;BMP_temperature;BMP_pressure;BME280_temperature;BME280_humidity;BME280_pressure;Samples;Min_cycle;Max_cycle;Signal;HPM_P1;HPM_P2
2023/04/05 00:01:31;;;;;;;0.00;0.00;;;2.20;27.50;;;;;;5033419;28;20053;-88
2023/04/05 00:03:58;;;;;;;0.00;0.00;;;2.10;38.30;;;;;;5000734;28;20041;-88
2023/04/05 00:06:25;;;;;;;0.00;0.00;;;2.40;42.40;;;;;;5033329;28;20046;-88
2023/04/05 00:08:58;;;;;;;0.20;0.00;;;2.00;42.60;;;;;;5033112;28;20049;-88
2023/04/05 00:11:26;;;;;;;0.08;0.08;;;2.00;43.90;;;;;;5032889;28;20119;-88
2023/04/05 00:13:52;;;;;;;0.20;0.15;;;2.00;32.70;;;;;;5032901;28;20068;-88
2023/04/05 00:16:18;;;;;;;0.00;0.00;;;2.00;20.60;;;;;;5017365;28;20369;-88
2023/04/05 00:18:50;;;;;;;0.00;0.00;;;2.00;22.70;;;;;;5017042;28;20049;-88
2023/04/05 00:21:17;;;;;;;0.00;0.00;;;1.90;30.40;;;;;;5033192;28;20041;-88
2023/04/05 00:23:43;;;;;;;0.55;0.30;;;1.80;27.80;;;;;;5033026;28;20124;-88
2023/04/05 00:26:11;;;;;;;0.10;0.05;;;1.80;22.80;;;;;;5000569;28;20076;-87
2023/04/05 00:28:36;;;;;;;0.57;0.10;;;1.80;26.80;;;;;;5000514;28;20100;-88
2023/04/05 00:31:03;;;;;;;1.20;0.88;;;1.80;27.20;;;;;;5016487;28;20037;-88
2023/04/05 00:33:29;;;;;;;0.00;0.00;;;1.70;29.90;;;;;;5016918;28;20049;-88
2023/04/05 00:35:55;;;;;;;0.43;0.10;;;1.60;44.90;;;;;;4999948;28;20068;-88
2023/04/05 00:38:20;;;;;;;0.10;0.10;;;1.60;31.60;;;;;;5000306;28;20088;-87
2023/04/05 00:40:46;;;;;;;0.17;0.10;;;1.60;45.40;;;;;;5016674;28;20187;-88
2023/04/05 00:43:12;;;;;;;0.00;0.00;;;1.70;46.00;;;;;;5033591;28;20042;-88
2023/04/05 00:45:37;;;;;;;0.00;0.00;;;1.60;53.00;;;;;;5016346;28;20488;-88
2023/04/05 00:48:05;;;;;;;0.30;0.30;;;1.60;53.30;;;;;;4999865;28;20132;-88
2023/04/05 00:50:31;;;;;;;0.28;0.28;;;1.50;56.30;;;;;;5032731;28;20138;-88
2023/04/05 00:52:57;;;;;;;0.00;0.00;;;1.50;52.30;;;;;;5016729;28;20443;-88
2023/04/05 00:55:25;;;;;;;0.20;0.20;;;1.50;49.10;;;;;;5032860;28;20132;-88
2023/04/05 00:57:54;;;;;;;0.00;0.00;;;1.40;56.70;;;;;;5033503;28;20064;-88
2023/04/05 01:00:21;;;;;;;0.10;0.10;;;1.40;59.50;;;;;;5032618;28;20053;-88
2023/04/05 01:03:00;;;;;;;0.00;0.00;;;1.40;49.60;;;;;;5016088;28;20509;-88
2023/04/05 01:05:37;;;;;;;0.00;0.00;;;1.40;47.10;;;;;;5032599;28;20057;-88
2023/04/05 01:08:25;;;;;;;0.05;0.05;;;1.50;41.50;;;;;;5032878;28;20400;-88
2023/04/05 01:10:56;;;;;;;4.18;0.75;;;1.50;43.10;;;;;;5032555;28;20526;-88
2023/04/05 01:13:24;;;;;;;0.00;0.00;;;1.40;36.90;;;;;;5016387;28;20145;-88
2023/04/05 01:15:49;;;;;;;0.00;0.00;;;1.50;31.30;;;;;;5016744;28;20057;-88
2023/04/05 01:18:15;;;;;;;0.45;0.20;;;1.40;37.40;;;;;;5016893;28;20401;-88
2023/04/05 01:21:22;;;;;;;0.00;0.00;;;1.40;42.70;;;;;;5016027;28;20042;-88
2023/04/05 01:24:14;;;;;;;0.00;0.00;;;1.30;52.40;;;;;;5016329;28;20056;-88
2023/04/05 01:27:03;;;;;;;0.00;0.00;;;1.20;56.90;;;;;;5015966;28;20049;-88
2023/04/05 01:29:37;;;;;;;1.00;0.35;;;1.20;44.50;;;;;;5032727;28;20038;-88
2023/04/05 01:32:36;;;;;;;0.00;0.00;;;1.20;35.80;;;;;;5032854;28;20554;-87
2023/04/05 01:35:30;;;;;;;0.00;0.00;;;1.20;47.80;;;;;;5032266;28;20054;-88
2023/04/05 01:38:01;;;;;;;0.30;0.20;;;1.20;44.80;;;;;;5015027;28;20490;-88
2023/04/05 01:40:28;;;;;;;0.17;0.17;;;1.20;45.60;;;;;;5033173;28;20042;-88
2023/04/05 01:42:54;;;;;;;0.15;0.15;;;1.20;58.20;;;;;;5015938;28;20136;-88
2023/04/05 01:45:20;;;;;;;0.00;0.00;;;1.10;63.50;;;;;;5015512;28;20141;-88
2023/04/05 01:47:46;;;;;;;0.00;0.00;;;1.00;64.50;;;;;;5032448;28;20095;-88
2023/04/05 01:50:11;;;;;;;0.15;0.15;;;1.00;61.20;;;;;;4999470;28;20394;-87
2023/04/05 01:52:37;;;;;;;0.00;0.00;;;1.00;64.20;;;;;;5016060;28;20052;-88
2023/04/05 01:55:03;;;;;;;0.10;0.00;;;0.90;64.30;;;;;;4999236;28;20136;-88
2023/04/05 01:57:29;;;;;;;0.00;0.00;;;0.80;65.70;;;;;;5015761;28;20042;-87
2023/04/05 01:59:54;;;;;;;0.00;0.00;;;0.80;68.70;;;;;;5035203;28;20046;-88
2023/04/05 02:02:20;;;;;;;0.03;0.03;;;0.80;70.40;;;;;;5019162;28;20132;-88
2023/04/05 02:04:46;;;;;;;0.10;0.00;;;0.70;69.30;;;;;;5019016;28;20191;-88
2023/04/05 02:07:11;;;;;;;0.00;0.00;;;0.70;67.40;;;;;;5003567;28;20057;-87
2023/04/05 02:09:37;;;;;;;0.35;0.25;;;0.70;65.40;;;;;;5019169;28;20045;-88
2023/04/05 02:12:03;;;;;;;0.00;0.00;;;0.70;60.90;;;;;;5035298;28;20056;-87
2023/04/05 02:14:28;;;;;;;0.10;0.10;;;0.80;64.80;;;;;;5019045;28;20048;-88
2023/04/05 02:16:55;;;;;;;0.00;0.00;;;0.80;67.70;;;;;;5036352;28;20045;-87
2023/04/05 02:19:22;;;;;;;0.08;0.00;;;0.80;69.30;;;;;;5003422;28;20053;-87
2023/04/05 02:21:49;;;;;;;0.10;0.10;;;0.70;56.30;;;;;;5036124;28;20107;-88
2023/04/05 02:24:14;;;;;;;0.00;0.00;;;0.80;63.80;;;;;;5019273;28;20059;-88
2023/04/05 02:26:40;;;;;;;0.15;0.00;;;0.80;58.80;;;;;;5019570;28;20057;-88
2023/04/05 02:29:06;;;;;;;0.15;0.10;;;0.80;61.00;;;;;;5036428;28;20049;-88
2023/04/05 02:31:32;;;;;;;1.27;0.10;;;0.80;55.30;;;;;;5019874;28;20581;-88
2023/04/05 02:33:59;;;;;;;0.45;0.40;;;0.80;61.90;;;;;;5035799;28;20056;-88
2023/04/05 02:36:27;;;;;;;0.00;0.00;;;0.70;65.70;;;;;;5002550;28;20084;-87
2023/04/05 02:38:53;;;;;;;0.10;0.10;;;0.70;66.80;;;;;;5019062;28;20119;-88
2023/04/05 02:41:21;;;;;;;0.00;0.00;;;0.60;72.80;;;;;;5036011;28;20531;-88
2023/04/05 02:43:47;;;;;;;0.55;0.32;;;0.50;71.90;;;;;;5037091;28;20102;-88
2023/04/05 02:46:12;;;;;;;0.00;0.00;;;0.40;72.00;;;;;;5021218;28;20053;-88
2023/04/05 02:48:38;;;;;;;0.00;0.00;;;0.40;71.90;;;;;;5034878;28;20119;-88
2023/04/05 02:51:04;;;;;;;0.00;0.00;;;0.50;68.10;;;;;;5018478;28;20045;-88
2023/04/05 02:53:29;;;;;;;0.00;0.00;;;0.60;63.50;;;;;;5018222;28;20053;-88
2023/04/05 02:55:56;;;;;;;0.08;0.08;;;0.60;66.10;;;;;;5034377;28;20042;-88
2023/04/05 02:58:22;;;;;;;0.08;0.08;;;0.60;59.40;;;;;;5034297;28;20091;-88
2023/04/05 03:00:50;;;;;;;0.05;0.05;;;0.60;55.20;;;;;;5018006;28;20050;-88
2023/04/05 03:03:22;;;;;;;0.00;0.00;;;0.60;59.60;;;;;;5034184;28;20133;-88
2023/04/05 03:05:55;;;;;;;0.10;0.10;;;0.60;62.70;;;;;;5034318;28;20100;-88
2023/04/05 03:08:22;;;;;;;0.00;0.00;;;0.60;57.10;;;;;;5018076;28;20103;-88
2023/04/05 03:10:51;;;;;;;0.13;0.13;;;0.60;59.40;;;;;;5016473;28;20140;-88
2023/04/05 03:13:16;;;;;;;0.00;0.00;;;0.60;58.70;;;;;;5034524;28;20127;-88
2023/04/05 03:15:42;;;;;;;0.08;0.00;;;0.60;53.50;;;;;;5034304;28;20483;-88
2023/04/05 03:18:08;;;;;;;1.55;0.88;;;0.60;61.00;;;;;;5034064;28;20045;-88
2023/04/05 03:20:39;;;;;;;0.22;0.22;;;0.60;65.20;;;;;;5033865;28;20057;-88
2023/04/05 03:23:07;;;;;;;0.00;0.00;;;0.50;63.70;;;;;;5018515;28;20042;-88
2023/04/05 03:25:35;;;;;;;0.00;0.00;;;0.50;59.10;;;;;;5017245;28;20081;-88
2023/04/05 03:28:04;;;;;;;0.32;0.30;;;0.50;64.30;;;;;;5018235;28;20064;-88
2023/04/05 03:30:31;;;;;;;0.00;0.00;;;0.50;64.70;;;;;;5034773;28;20098;-88
2023/04/05 03:33:00;;;;;;;0.20;0.00;;;0.60;58.40;;;;;;5034860;28;20057;-88
2023/04/05 03:35:27;;;;;;;0.40;0.40;;;0.60;60.60;;;;;;5034131;28;20120;-88
2023/04/05 03:37:54;;;;;;;0.30;0.30;;;0.50;55.50;;;;;;5017940;28;20064;-88
2023/04/05 03:40:20;;;;;;;0.00;0.00;;;0.70;57.20;;;;;;5000965;28;20087;-88
2023/04/05 03:42:45;;;;;;;0.00;0.00;;;0.60;52.90;;;;;;5033726;28;20088;-88
2023/04/05 03:45:11;;;;;;;0.00;0.00;;;0.50;59.10;;;;;;5017475;28;20053;-88
2023/04/05 03:47:37;;;;;;;2.75;1.00;;;0.50;61.30;;;;;;5033557;28;20530;-88
2023/04/05 03:50:03;;;;;;;0.00;0.00;;;0.40;62.20;;;;;;5016804;28;20045;-88
2023/04/05 03:52:29;;;;;;;0.25;0.10;;;0.50;67.70;;;;;;5016915;28;20053;-88
2023/04/05 03:54:55;;;;;;;1.10;0.10;;;0.40;70.60;;;;;;5016633;28;20045;-88
2023/04/05 03:57:21;;;;;;;0.75;0.57;;;0.40;66.80;;;;;;5033404;28;20052;-88
2023/04/05 03:59:46;;;;;;;0.00;0.00;;;0.40;68.90;;;;;;5016964;28;20107;-89
2023/04/05 04:02:12;;;;;;;0.00;0.00;;;0.40;68.50;;;;;;5016638;28;20053;-89
2023/04/05 04:04:38;;;;;;;0.00;0.00;;;0.30;64.70;;;;;;5017208;28;20041;-88
2023/04/05 04:07:03;;;;;;;0.10;0.10;;;0.40;64.40;;;;;;5033953;28;20049;-89
2023/04/05 04:09:29;;;;;;;1.00;0.70;;;0.30;65.90;;;;;;5000946;28;20052;-88
2023/04/05 04:11:56;;;;;;;0.00;0.00;;;0.20;65.70;;;;;;5032802;28;20053;-88
2023/04/05 04:14:22;;;;;;;0.00;0.00;;;0.20;61.60;;;;;;5033925;28;20052;-89
2023/04/05 04:16:48;;;;;;;0.45;0.35;;;0.20;63.70;;;;;;5032809;28;20126;-88
2023/04/05 04:19:17;;;;;;;1.92;0.45;;;0.20;67.20;;;;;;5033782;28;20511;-88
2023/04/05 04:21:44;;;;;;;5.18;0.35;;;0.10;67.50;;;;;;5032852;28;20094;-88
2023/04/05 04:24:17;;;;;;;0.68;0.15;;;0.10;65.50;;;;;;5017083;28;20110;-88
2023/04/05 04:26:44;;;;;;;0.00;0.00;;;0.10;65.70;;;;;;5017779;28;20049;-89
2023/04/05 04:29:11;;;;;;;0.00;0.00;;;0.10;68.40;;;;;;5016491;28;20477;-88
2023/04/05 04:31:38;;;;;;;0.08;0.08;;;0.10;69.20;;;;;;5032912;28;20046;-89
2023/04/05 04:34:04;;;;;;;0.20;0.10;;;0.10;66.60;;;;;;5016645;28;20115;-88
2023/04/05 04:36:35;;;;;;;0.00;0.00;;;0.10;71.40;;;;;;5032635;28;20057;-89
2023/04/05 04:39:04;;;;;;;0.00;0.00;;;0.20;71.30;;;;;;5017692;28;20045;-89
2023/04/05 04:41:32;;;;;;;0.30;0.25;;;0.20;66.50;;;;;;5016279;28;20053;-89
2023/04/05 04:44:01;;;;;;;1.00;0.10;;;0.20;68.20;;;;;;5032681;28;20370;-89
2023/04/05 04:46:41;;;;;;;0.75;0.55;;;0.10;66.50;;;;;;5032654;28;20107;-89
2023/04/05 04:49:08;;;;;;;0.00;0.00;;;0.10;70.50;;;;;;5032797;28;20497;-89
2023/04/05 04:51:36;;;;;;;0.25;0.25;;;0.00;72.40;;;;;;5032635;28;20053;-88
2023/04/05 04:54:02;;;;;;;0.47;0.47;;;0.10;78.10;;;;;;5016772;28;20048;-88
2023/04/05 04:56:28;;;;;;;0.00;0.00;;;0.10;76.60;;;;;;5016186;28;20041;-88
2023/04/05 04:58:55;;;;;;;0.00;0.00;;;0.10;75.40;;;;;;5032572;28;20385;-88
2023/04/05 05:01:23;;;;;;;0.60;0.35;;;0.00;67.10;;;;;;5000723;28;20136;-88
2023/04/05 05:03:52;;;;;;;0.38;0.10;;;0.20;72.70;;;;;;5032603;28;20060;-88
2023/04/05 05:06:23;;;;;;;0.45;0.05;;;0.10;77.40;;;;;;5032718;28;20468;-88
2023/04/05 05:08:49;;;;;;;0.45;0.45;;;0.10;73.30;;;;;;5017898;28;20081;-89
2023/04/05 05:11:15;;;;;;;0.00;0.00;;;0.10;75.10;;;;;;5015792;28;20128;-89
2023/04/05 05:13:41;;;;;;;0.00;0.00;;;0.10;76.20;;;;;;5016046;28;20473;-88
2023/04/05 05:16:08;;;;;;;0.00;0.00;;;0.10;72.90;;;;;;5016062;28;20045;-88
2023/04/05 05:18:34;;;;;;;13.98;0.77;;;0.10;72.60;;;;;;5015925;28;20045;-88
2023/04/05 05:20:59;;;;;;;0.17;0.17;;;0.00;69.00;;;;;;5015930;28;20048;-88
2023/04/05 05:23:26;;;;;;;0.20;0.20;;;0.00;73.40;;;;;;5015894;28;20049;-88
2023/04/05 05:25:58;;;;;;;0.00;0.00;;;0.00;72.50;;;;;;5032493;28;20042;-88
2023/04/05 05:28:26;;;;;;;0.10;0.10;;;0.00;77.60;;;;;;5033144;28;20054;-88
2023/04/05 05:30:51;;;;;;;0.00;0.00;;;0.00;80.50;;;;;;5032531;28;20056;-88
2023/04/05 05:33:17;;;;;;;0.00;0.00;;;0.00;82.10;;;;;;5033825;28;20053;-88
2023/04/05 05:35:47;;;;;;;0.00;0.00;;;0.00;82.50;;;;;;5035965;28;20370;-88
2023/04/05 05:38:12;;;;;;;0.00;0.00;;;0.00;86.40;;;;;;5036203;28;20187;-88
2023/04/05 05:40:38;;;;;;;0.00;0.00;;;0.00;87.60;;;;;;5035932;28;20140;-88
2023/04/05 05:43:04;;;;;;;0.00;0.00;;;0.00;85.80;;;;;;5035841;28;20048;-88
2023/04/05 05:45:29;;;;;;;0.45;0.40;;;0.10;83.10;;;;;;5019413;28;20049;-88
2023/04/05 05:47:55;;;;;;;0.22;0.22;;;0.20;78.50;;;;;;5020156;28;20045;-88
2023/04/05 05:50:21;;;;;;;0.35;0.10;;;0.30;78.00;;;;;;5019345;28;20056;-88
2023/04/05 05:52:46;;;;;;;0.00;0.00;;;0.40;84.00;;;;;;5018970;28;20076;-88
2023/04/05 05:55:12;;;;;;;0.10;0.10;;;0.40;83.40;;;;;;5019097;28;20060;-88
2023/04/05 05:57:38;;;;;;;0.20;0.20;;;0.40;81.70;;;;;;5035630;28;20049;-88
2023/04/05 06:00:08;;;;;;;0.00;0.00;;;0.60;82.10;;;;;;5002772;28;20088;-88
2023/04/05 06:02:34;;;;;;;0.22;0.22;;;0.80;85.10;;;;;;5035839;28;20129;-88
2023/04/05 06:05:00;;;;;;;0.20;0.20;;;1.00;80.30;;;;;;5035436;28;20136;-88
2023/04/05 06:07:27;;;;;;;0.00;0.00;;;1.20;78.30;;;;;;5018897;28;20051;-88
2023/04/05 06:09:52;;;;;;;0.20;0.20;;;1.40;80.10;;;;;;5035607;28;20051;-88
2023/04/05 06:12:22;;;;;;;0.17;0.17;;;1.50;76.00;;;;;;5035798;28;20049;-88
2023/04/05 06:14:48;;;;;;;0.20;0.00;;;1.70;73.20;;;;;;5019218;28;20085;-88
2023/04/05 06:17:13;;;;;;;0.00;0.00;;;1.80;71.50;;;;;;5018629;28;20095;-88
2023/04/05 06:19:39;;;;;;;0.10;0.00;;;1.90;67.20;;;;;;5018835;28;20080;-89
2023/04/05 06:22:05;;;;;;;1.45;0.17;;;1.90;65.90;;;;;;5019463;28;20461;-88
2023/04/05 06:24:31;;;;;;;0.00;0.00;;;1.90;67.40;;;;;;5018857;28;20064;-88
2023/04/05 06:27:00;;;;;;;0.40;0.25;;;1.90;65.80;;;;;;5019077;28;20088;-89
2023/04/05 06:29:25;;;;;;;0.10;0.10;;;2.20;72.70;;;;;;5002338;28;20495;-87
2023/04/05 06:31:51;;;;;;;0.55;0.55;;;2.50;71.90;;;;;;5018479;28;20041;-88
2023/04/05 06:34:17;;;;;;;0.10;0.05;;;2.90;69.00;;;;;;5018743;28;20084;-88
2023/04/05 06:36:43;;;;;;;0.52;0.40;;;3.20;63.20;;;;;;5018543;28;20049;-88
2023/04/05 06:39:09;;;;;;;0.30;0.25;;;3.70;59.60;;;;;;5018356;28;20136;-87
2023/04/05 06:41:34;;;;;;;1.63;0.38;;;4.20;53.90;;;;;;5018470;28;20076;-87
2023/04/05 06:44:00;;;;;;;0.65;0.20;;;4.50;34.50;;;;;;5001473;28;20413;-87
2023/04/05 06:46:26;;;;;;;0.00;0.00;;;5.00;30.00;;;;;;5018307;28;20397;-87
2023/04/05 06:48:52;;;;;;;2.72;0.20;;;5.40;15.80;;;;;;5018309;28;20367;-87
2023/04/05 06:51:18;;;;;;;0.90;0.30;;;5.70;9.00;;;;;;5034776;28;20048;-87
2023/04/05 06:53:43;;;;;;;0.10;0.10;;;6.10;1.20;;;;;;5034626;28;20132;-88
2023/04/05 06:56:09;;;;;;;0.00;0.00;;;6.50;1.00;;;;;;5017926;28;20176;-87
2023/04/05 06:58:35;;;;;;;0.10;0.00;;;7.10;1.00;;;;;;5035426;28;20393;-87
2023/04/05 07:01:01;;;;;;;0.50;0.35;;;7.50;1.00;;;;;;5017997;28;20052;-86
2023/04/05 07:03:27;;;;;;;0.90;0.20;;;7.90;1.00;;;;;;5034500;28;20123;-86
2023/04/05 07:05:55;;;;;;;0.10;0.00;;;8.10;1.00;;;;;;5035236;28;20049;-86
2023/04/05 07:08:22;;;;;;;0.10;0.05;;;8.00;99.90;;;;;;5034344;28;20566;-86
2023/04/05 07:10:49;;;;;;;0.30;0.30;;;8.30;99.90;;;;;;5017105;28;20049;-86
2023/04/05 07:13:18;;;;;;;0.55;0.43;;;8.90;99.90;;;;;;5001777;28;20060;-86
2023/04/05 07:15:44;;;;;;;0.10;0.10;;;9.50;99.90;;;;;;5034932;28;20037;-86
2023/04/05 07:18:10;;;;;;;0.73;0.40;;;9.90;99.90;;;;;;5000804;28;20570;-86
2023/04/05 07:20:36;;;;;;;0.10;0.10;;;10.30;99.90;;;;;;5017488;28;20046;-87
2023/04/05 07:23:04;;;;;;;0.13;0.10;;;11.00;99.90;;;;;;5034090;28;20103;-85
2023/04/05 07:25:30;;;;;;;2.08;0.10;;;11.40;99.90;;;;;;5033746;28;20049;-85
2023/04/05 07:27:56;;;;;;;1.75;0.20;;;11.60;1.00;;;;;;5034283;28;20087;-85
2023/04/05 07:30:21;;;;;;;1.85;0.10;;;12.00;99.90;;;;;;5033897;28;20049;-83
2023/04/05 07:32:47;;;;;;;0.00;0.00;;;12.40;99.90;;;;;;5001098;28;20049;-83
2023/04/05 07:35:13;;;;;;;0.47;0.00;;;13.00;1.00;;;;;;5017351;28;20045;-85
2023/04/05 07:37:39;;;;;;;0.03;0.03;;;13.40;1.00;;;;;;5000958;28;20103;-87
2023/04/05 07:40:06;;;;;;;2.78;0.88;;;14.20;99.90;;;;;;5016976;28;20057;-87
2023/04/05 07:42:32;;;;;;;5.57;0.47;;;14.00;99.90;;;;;;5034014;28;20042;-87
2023/04/05 07:44:58;;;;;;;0.00;0.00;;;13.80;32.50;;;;;;5017298;28;20049;-86
2023/04/05 07:47:23;;;;;;;0.05;0.00;;;13.60;1.00;;;;;;5033654;28;20477;-87
2023/04/05 07:49:49;;;;;;;0.00;0.00;;;13.30;1.00;;;;;;5033556;28;20057;-86
2023/04/05 07:52:15;;;;;;;0.28;0.10;;;13.30;1.00;;;;;;5017940;28;20049;-86
2023/04/05 07:54:42;;;;;;;0.00;0.00;;;13.10;1.00;;;;;;5017355;28;20045;-86
2023/04/05 07:57:09;;;;;;;0.10;0.10;;;12.90;1.00;;;;;;5032563;28;20077;-86
2023/04/05 07:59:35;;;;;;;0.00;0.00;;;12.90;1.00;;;;;;5017908;28;20055;-86
2023/04/05 08:02:01;;;;;;;0.00;0.00;;;12.60;1.00;;;;;;5000793;28;20049;-85
2023/04/05 08:04:27;;;;;;;0.10;0.00;;;12.00;99.90;;;;;;5016935;28;20037;-86
2023/04/05 08:06:53;;;;;;;5.38;1.23;;;11.50;99.90;;;;;;5033257;28;20094;-84
2023/04/05 08:09:18;;;;;;;5.47;0.20;;;10.60;99.90;;;;;;5033996;28;20046;-84
2023/04/05 08:11:45;;;;;;;0.15;0.10;;;10.40;99.90;;;;;;5033941;28;20064;-85
2023/04/05 08:14:10;;;;;;;0.55;0.15;;;9.70;99.90;;;;;;5017057;28;20045;-84
2023/04/05 08:16:36;;;;;;;0.00;0.00;;;9.50;99.90;;;;;;5016235;28;20054;-84
2023/04/05 08:19:02;;;;;;;0.55;0.20;;;9.30;99.90;;;;;;5033281;28;20107;-87
2023/04/05 08:21:28;;;;;;;0.38;0.38;;;9.00;1.00;;;;;;4999728;28;20144;-86
2023/04/05 08:23:53;;;;;;;0.32;0.13;;;9.10;1.00;;;;;;5033110;28;20077;-86
2023/04/05 08:26:19;;;;;;;0.80;0.28;;;9.20;1.00;;;;;;5016472;28;20041;-88
2023/04/05 08:28:45;;;;;;;0.00;0.00;;;9.30;1.00;;;;;;5016485;28;20053;-87
2023/04/05 08:31:11;;;;;;;0.90;0.43;;;9.30;1.00;;;;;;5000431;28;20056;-86
2023/04/05 08:33:36;;;;;;;0.10;0.00;;;9.30;1.00;;;;;;5033027;28;20045;-86
2023/04/05 08:36:09;;;;;;;0.10;0.10;;;9.40;1.00;;;;;;5033330;28;20042;-87
2023/04/05 08:38:35;;;;;;;0.03;0.00;;;9.40;1.00;;;;;;4999920;28;20045;-93
2023/04/05 08:41:16;;;;;;;0.05;0.05;;;9.30;1.00;;;;;;5016302;28;20114;-86
2023/04/05 08:43:44;;;;;;;0.00;0.00;;;9.40;9.10;;;;;;5032992;28;20477;-85
2023/04/05 08:46:13;;;;;;;0.10;0.10;;;9.40;8.50;;;;;;5033010;28;20053;-85
2023/04/05 08:48:40;;;;;;;0.20;0.20;;;9.50;1.00;;;;;;5032607;28;20053;-85
2023/04/05 08:51:08;;;;;;;0.13;0.05;;;9.50;1.00;;;;;;5032676;28;20199;-85
2023/04/05 08:53:34;;;;;;;0.00;0.00;;;9.50;1.00;;;;;;5032659;28;20053;-84
2023/04/05 08:56:10;;;;;;;0.00;0.00;;;9.60;99.90;;;;;;5032834;28;20103;-85
2023/04/05 08:58:37;;;;;;;0.00;0.00;;;9.80;99.90;;;;;;5032348;28;20092;-85
2023/04/05 09:01:05;;;;;;;0.00;0.00;;;9.90;99.90;;;;;;5032336;28;20045;-85
2023/04/05 09:03:37;;;;;;;0.00;0.00;;;10.10;99.90;;;;;;5032587;28;20053;-84
2023/04/05 09:06:06;;;;;;;0.13;0.03;;;10.20;99.90;;;;;;5016263;28;20049;-84
2023/04/05 09:08:32;;;;;;;0.00;0.00;;;10.60;99.90;;;;;;5019029;28;20049;-85
2023/04/05 09:10:59;;;;;;;0.03;0.03;;;10.50;99.90;;;;;;5036236;28;20056;-85
2023/04/05 09:13:24;;;;;;;0.10;0.00;;;10.50;99.90;;;;;;5036517;28;20064;-86
2023/04/05 09:15:51;;;;;;;0.43;0.10;;;10.70;99.90;;;;;;5020169;28;20052;-85
2023/04/05 09:18:16;;;;;;;0.17;0.17;;;10.90;99.90;;;;;;5036661;28;20366;-85
2023/04/05 09:20:42;;;;;;;0.00;0.00;;;10.90;99.90;;;;;;5036432;28;20056;-85
2023/04/05 09:23:08;;;;;;;0.00;0.00;;;11.20;99.90;;;;;;5036334;28;20045;-85
2023/04/05 09:25:38;;;;;;;0.03;0.00;;;11.40;99.90;;;;;;5036569;28;20049;-85
2023/04/05 09:28:11;;;;;;;0.00;0.00;;;11.40;99.90;;;;;;5019966;28;20111;-86
2023/04/05 09:30:37;;;;;;;0.13;0.13;;;11.40;99.90;;;;;;5019740;28;20054;-86
2023/04/05 09:33:07;;;;;;;0.00;0.00;;;11.60;99.90;;;;;;5036251;28;20049;-86
2023/04/05 09:35:35;;;;;;;0.00;0.00;;;11.90;99.90;;;;;;5036049;28;20077;-86
2023/04/05 09:38:02;;;;;;;0.10;0.00;;;11.90;99.90;;;;;;5019864;28;20451;-85
2023/04/05 09:40:43;;;;;;;0.20;0.20;;;12.10;99.90;;;;;;5036798;28;20045;-86
2023/04/05 09:43:11;;;;;;;0.00;0.00;;;11.80;99.90;;;;;;5036147;28;20041;-86
2023/04/05 09:45:41;;;;;;;0.22;0.00;;;11.50;94.80;;;;;;5003333;28;20049;-86
2023/04/05 09:48:08;;;;;;;0.00;0.00;;;11.50;95.50;;;;;;5003339;28;20045;-86
2023/04/05 09:50:34;;;;;;;0.00;0.00;;;11.40;94.30;;;;;;5035625;28;20115;-86
2023/04/05 09:53:09;;;;;;;0.00;0.00;;;11.70;99.90;;;;;;5020163;28;20049;-86
2023/04/05 09:55:35;;;;;;;0.00;0.00;;;12.10;99.90;;;;;;5035705;28;20041;-86
2023/04/05 09:58:02;;;;;;;0.98;0.15;;;12.20;99.90;;;;;;5019465;28;20116;-86
2023/04/05 10:00:31;;;;;;;0.20;0.00;;;12.40;99.90;;;;;;5019173;28;20132;-86
2023/04/05 10:02:57;;;;;;;0.25;0.08;;;12.40;89.10;;;;;;5003242;28;20056;-86
2023/04/05 10:05:26;;;;;;;0.20;0.20;;;12.70;82.10;;;;;;5035787;28;20037;-86
2023/04/05 10:07:52;;;;;;;0.03;0.00;;;12.60;55.50;;;;;;5019042;28;20477;-86
2023/04/05 10:10:20;;;;;;;0.55;0.22;;;12.60;52.30;;;;;;5018675;28;20049;-86
2023/04/05 10:12:48;;;;;;;0.03;0.03;;;13.10;87.70;;;;;;5018868;28;20057;-86
2023/04/05 10:15:15;;;;;;;0.00;0.00;;;12.90;44.20;;;;;;5019023;28;20071;-86
2023/04/05 10:18:25;;;;;;;0.77;0.25;;;12.70;25.20;;;;;;5036210;28;20389;-86
2023/04/05 10:20:53;;;;;;;0.00;0.00;;;12.60;41.10;;;;;;4978926;28;20528;-87
2023/04/05 10:23:26;;;;;;;0.35;0.10;;;12.60;38.20;;;;;;5010644;28;20417;-86
2023/04/05 10:25:52;;;;;;;0.70;0.47;;;12.90;38.60;;;;;;5035814;28;20041;-87
2023/04/05 10:28:33;;;;;;;0.00;0.00;;;13.10;27.20;;;;;;5035178;28;20046;-86
2023/04/05 10:31:37;;;;;;;0.00;0.00;;;13.60;50.80;;;;;;5036060;28;20183;-86
2023/04/05 10:34:11;;;;;;;0.00;0.00;;;13.40;12.20;;;;;;5019449;28;20143;-86
2023/04/05 10:36:58;;;;;;;0.00;0.00;;;13.90;5.80;;;;;;5035203;28;20053;-86
2023/04/05 10:39:26;;;;;;;0.00;0.00;;;14.00;8.30;;;;;;5035235;28;20107;-86
2023/04/05 10:42:19;;;;;;;0.00;0.00;;;14.30;2.10;;;;;;5035686;28;20046;-86
2023/04/05 10:44:49;;;;;;;0.03;0.00;;;13.90;1.00;;;;;;5015235;28;20147;-86
2023/04/05 10:47:18;;;;;;;0.85;0.20;;;13.40;1.00;;;;;;5034782;28;20513;-86
2023/04/05 10:49:47;;;;;;;0.00;0.00;;;13.00;1.00;;;;;;5018935;28;20080;-86
2023/04/05 10:52:13;;;;;;;0.00;0.00;;;12.90;1.00;;;;;;5035051;28;20491;-85
2023/04/05 10:54:40;;;;;;;0.00;0.00;;;13.10;1.00;;;;;;5035409;28;20466;-85
2023/04/05 10:57:08;;;;;;;4.85;0.47;;;13.30;1.00;;;;;;5034492;28;20048;-85
2023/04/05 10:59:35;;;;;;;0.03;0.00;;;13.50;1.00;;;;;;5035665;28;20053;-86
2023/04/05 11:02:03;;;;;;;0.10;0.10;;;13.40;1.00;;;;;;5019001;28;20057;-85
2023/04/05 11:04:28;;;;;;;1.08;0.25;;;13.30;1.00;;;;;;5035698;28;20084;-86
2023/04/05 11:07:16;;;;;;;1.50;0.38;;;13.40;1.00;;;;;;5034365;28;20077;-86
2023/04/05 11:10:01;;;;;;;0.00;0.00;;;13.70;1.00;;;;;;5034674;28;20106;-86
2023/04/05 11:12:45;;;;;;;0.00;0.00;;;13.90;1.00;;;;;;5017672;28;20054;-86
2023/04/05 11:15:27;;;;;;;0.00;0.00;;;13.90;1.00;;;;;;5034588;28;20054;-86
2023/04/05 11:18:03;;;;;;;1.08;0.45;;;14.20;1.00;;;;;;5017741;28;20481;-86
2023/04/05 11:20:51;;;;;;;0.10;0.00;;;14.10;1.00;;;;;;5017706;28;20046;-86
2023/04/05 11:23:19;;;;;;;0.03;0.00;;;14.20;1.00;;;;;;5034135;28;20085;-86
2023/04/05 11:25:54;;;;;;;0.00;0.00;;;13.90;1.00;;;;;;5017589;28;20382;-86
2023/04/05 11:28:27;;;;;;;0.00;0.00;;;13.90;1.00;;;;;;5018207;28;20088;-86
2023/04/05 11:30:55;;;;;;;0.08;0.00;;;13.90;1.00;;;;;;5034276;28;20049;-86
2023/04/05 11:33:43;;;;;;;0.25;0.05;;;14.00;1.00;;;;;;5034522;28;20049;-85
2023/04/05 11:36:09;;;;;;;0.00;0.00;;;13.80;1.00;;;;;;5017430;28;20128;-85
2023/04/05 11:38:36;;;;;;;0.25;0.25;;;13.90;1.00;;;;;;5018082;28;20452;-85
2023/04/05 11:41:10;;;;;;;0.00;0.00;;;14.20;1.00;;;;;;5017531;28;20053;-86
2023/04/05 11:43:41;;;;;;;0.00;0.00;;;14.40;1.00;;;;;;5034861;28;20046;-86
2023/04/05 11:46:07;;;;;;;0.00;0.00;;;14.40;1.00;;;;;;5033961;28;20045;-85
2023/04/05 11:48:33;;;;;;;0.10;0.00;;;14.40;1.00;;;;;;5016952;28;20374;-85
2023/04/05 11:50:59;;;;;;;0.00;0.00;;;14.50;1.00;;;;;;5034581;28;20084;-86
2023/04/05 11:53:30;;;;;;;0.00;0.00;;;14.20;1.00;;;;;;5147218;27;1366104;-86
2023/04/05 11:56:09;;;;;;;0.10;0.10;;;14.20;1.00;;;;;;5137843;27;20405;-85
2023/04/05 11:58:36;;;;;;;0.22;0.22;;;14.30;1.00;;;;;;5134452;27;20565;-85
2023/04/05 12:01:05;;;;;;;0.43;0.00;;;14.20;1.00;;;;;;5117202;27;20041;-86
2023/04/05 12:03:31;;;;;;;0.63;0.20;;;14.40;1.00;;;;;;5153101;27;20447;-85
2023/04/05 12:06:00;;;;;;;0.00;0.00;;;14.40;1.00;;;;;;5134269;27;20043;-86
2023/04/05 12:08:51;;;;;;;0.00;0.00;;;14.60;1.00;;;;;;5133040;27;20503;-85
2023/04/05 12:11:29;;;;;;;0.00;0.00;;;14.70;1.00;;;;;;5134897;27;20130;-87
2023/04/05 12:14:00;;;;;;;0.20;0.20;;;14.30;1.00;;;;;;5134546;27;20390;-87
2023/04/05 12:16:27;;;;;;;0.45;0.20;;;14.30;1.00;;;;;;5133910;27;20505;-86
2023/04/05 12:18:54;;;;;;;0.00;0.00;;;14.40;1.00;;;;;;5135286;27;20494;-86
2023/04/05 12:21:21;;;;;;;0.65;0.52;;;14.30;1.00;;;;;;5134122;27;20386;-87
2023/04/05 12:23:48;;;;;;;0.00;0.00;;;14.20;1.00;;;;;;5133852;27;20111;-86
2023/04/05 12:26:14;;;;;;;0.63;0.40;;;14.10;1.00;;;;;;5133794;27;20055;-86
2023/04/05 12:28:52;;;;;;;0.00;0.00;;;14.10;1.00;;;;;;5127092;27;20113;-86
2023/04/05 12:31:39;;;;;;;0.10;0.10;;;13.90;1.00;;;;;;5154308;27;20042;-86
2023/04/05 12:34:05;;;;;;;0.00;0.00;;;14.00;1.00;;;;;;5136559;27;20104;-86
2023/04/05 12:36:31;;;;;;;0.10;0.10;;;14.10;1.00;;;;;;5153961;27;20434;-86
2023/04/05 12:38:58;;;;;;;0.00;0.00;;;14.10;1.00;;;;;;5143213;27;20517;-86
2023/04/05 12:41:30;;;;;;;0.00;0.00;;;14.20;1.00;;;;;;5116776;27;20150;-86
2023/04/05 12:44:00;;;;;;;0.73;0.28;;;14.20;1.00;;;;;;5133132;27;20058;-85
2023/04/05 12:46:40;;;;;;;0.08;0.08;;;14.00;1.00;;;;;;5133614;27;20057;-86
2023/04/05 12:49:09;;;;;;;0.05;0.00;;;14.00;1.00;;;;;;5123788;27;20098;-86
2023/04/05 12:51:35;;;;;;;0.00;0.00;;;14.00;1.00;;;;;;5172203;27;20117;-85
2023/04/05 12:54:03;;;;;;;0.00;0.00;;;14.10;1.00;;;;;;5172712;27;20121;-86
2023/04/05 12:56:29;;;;;;;0.10;0.10;;;13.90;1.00;;;;;;5154014;27;20051;-86
2023/04/05 12:58:55;;;;;;;3.00;0.43;;;13.90;1.00;;;;;;5133015;27;20050;-87
2023/04/05 13:01:21;;;;;;;0.00;0.00;;;14.10;1.00;;;;;;5116124;27;20386;-87
2023/04/05 13:03:46;;;;;;;0.00;0.00;;;14.30;1.00;;;;;;5125893;27;20115;-86